createdAt,value
2019-03-03T00:01:39.857Z,9.17
2019-03-03T00:04:12.406Z,11.97
2019-03-03T00:06:42.452Z,10.60
2019-03-03T00:09:12.810Z,12.47
2019-03-03T00:11:48.337Z,13.83
2019-03-03T00:14:18.290Z,13.40
2019-03-03T00:16:48.292Z,12.40
2019-03-03T00:19:18.499Z,11.07
2019-03-03T00:21:48.688Z,10.13
2019-03-03T00:24:18.694Z,8.70
2019-03-03T00:26:48.578Z,8.47
2019-03-03T00:29:18.777Z,8.00
2019-03-03T00:31:48.977Z,8.07
2019-03-03T00:34:19.348Z,8.70
2019-03-03T00:37:10.044Z,8.97
2019-03-03T00:40:05.665Z,11.10
2019-03-03T00:42:46.802Z,12.03
2019-03-03T00:45:34.476Z,14.23
2019-03-03T00:48:17.557Z,12.43
2019-03-03T00:50:55.041Z,8.90
2019-03-03T00:53:53.114Z,8.93
2019-03-03T00:56:31.728Z,5.77
2019-03-03T00:59:14.337Z,7.60
2019-03-03T01:01:49.279Z,6.10
2019-03-03T01:04:41.330Z,7.53
2019-03-03T01:07:19.013Z,7.03
2019-03-03T01:09:56.202Z,7.20
2019-03-03T01:12:38.394Z,7.27
2019-03-03T01:15:31.671Z,7.07
2019-03-03T01:18:23.793Z,7.10
2019-03-03T01:21:00.971Z,5.63
2019-03-03T01:23:52.786Z,6.80
2019-03-03T01:26:23.003Z,5.20
2019-03-03T01:28:53.161Z,6.80
2019-03-03T01:31:23.234Z,7.20
2019-03-03T01:33:53.572Z,5.63
2019-03-03T01:36:24.170Z,5.60
2019-03-03T01:38:54.168Z,6.93
2019-03-03T01:41:24.160Z,6.30
2019-03-03T01:43:54.403Z,6.07
2019-03-03T01:46:24.616Z,5.83
2019-03-03T01:48:54.633Z,6.17
2019-03-03T01:51:24.650Z,6.07
2019-03-03T01:53:54.858Z,6.40
2019-03-03T01:56:25.047Z,6.87
2019-03-03T01:58:55.047Z,6.20
2019-03-03T02:01:25.465Z,5.90
2019-03-03T02:03:55.479Z,6.13
2019-03-03T02:06:25.621Z,13.77
2019-03-03T02:08:55.793Z,7.20
2019-03-03T02:11:26.093Z,7.20
2019-03-03T02:13:56.091Z,6.83
2019-03-03T02:16:26.023Z,6.83
2019-03-03T02:18:56.236Z,5.90
2019-03-03T02:21:26.529Z,6.03
2019-03-03T02:23:56.558Z,6.00
2019-03-03T02:26:26.660Z,5.90
2019-03-03T02:28:56.968Z,6.60
2019-03-03T02:31:27.192Z,6.63
2019-03-03T02:33:57.366Z,5.90
2019-03-03T02:36:27.512Z,6.23
2019-03-03T02:38:57.725Z,5.83
2019-03-03T02:41:27.860Z,6.73
2019-03-03T02:43:58.063Z,7.83
2019-03-03T02:46:28.290Z,6.07
2019-03-03T02:48:58.315Z,5.80
2019-03-03T02:51:28.332Z,6.90
2019-03-03T02:53:58.577Z,6.93
2019-03-03T02:56:28.792Z,5.53
2019-03-03T02:58:58.924Z,6.53
2019-03-03T03:01:33.151Z,5.90
2019-03-03T03:04:03.485Z,6.60
2019-03-03T03:06:58.444Z,6.83
2019-03-03T03:09:50.289Z,5.87
2019-03-03T03:12:28.711Z,5.77
2019-03-03T03:15:15.120Z,5.67
2019-03-03T03:18:16.289Z,7.37
2019-03-03T03:21:03.620Z,6.90
2019-03-03T03:23:58.492Z,7.00
2019-03-03T03:26:50.239Z,6.67
2019-03-03T03:29:44.867Z,6.03
2019-03-03T03:32:26.418Z,6.57
2019-03-03T03:35:19.128Z,5.10
2019-03-03T03:38:04.214Z,4.63
2019-03-03T03:40:56.287Z,6.47
2019-03-03T03:44:03.772Z,8.13
2019-03-03T03:46:52.814Z,9.10
2019-03-03T03:49:33.325Z,8.57
2019-03-03T03:52:29.023Z,8.30
2019-03-03T03:55:15.637Z,7.50
2019-03-03T03:58:02.231Z,6.87
2019-03-03T04:01:03.384Z,8.30
2019-03-03T04:03:51.001Z,7.03
2019-03-03T04:06:29.094Z,6.63
2019-03-03T04:09:30.455Z,10.47
2019-03-03T04:12:19.502Z,8.33
2019-03-03T04:15:17.571Z,6.57
2019-03-03T04:18:03.752Z,11.00
2019-03-03T04:21:04.823Z,7.40
2019-03-03T04:23:53.899Z,6.90
2019-03-03T04:26:32.931Z,8.60
2019-03-03T04:29:25.174Z,6.70
2019-03-03T04:32:17.008Z,5.20
2019-03-03T04:35:14.164Z,7.00
2019-03-03T04:38:15.343Z,8.37
2019-03-03T04:41:03.278Z,8.50
2019-03-03T04:43:51.242Z,8.17
2019-03-03T04:46:46.095Z,7.20
2019-03-03T04:49:44.145Z,7.07
2019-03-03T04:52:22.546Z,8.00
2019-03-03T04:55:20.527Z,8.80
2019-03-03T04:58:00.283Z,9.17
2019-03-03T05:00:56.602Z,11.00
2019-03-03T05:03:50.582Z,11.77
2019-03-03T05:06:30.427Z,21.00
2019-03-03T05:09:15.073Z,37.20
2019-03-03T05:12:26.993Z,17.80
2019-03-03T05:15:01.984Z,19.47
2019-03-03T05:17:54.059Z,18.87
2019-03-03T05:20:24.386Z,21.20
2019-03-03T05:22:54.615Z,20.40
2019-03-03T05:25:24.695Z,22.13
2019-03-03T05:27:54.716Z,19.50
2019-03-03T05:30:24.969Z,17.97
2019-03-03T05:32:55.226Z,27.10
2019-03-03T05:35:25.282Z,28.77
2019-03-03T05:37:55.607Z,25.90
2019-03-03T05:40:26.034Z,27.07
2019-03-03T05:42:55.933Z,30.60
2019-03-03T05:45:26.239Z,40.80
2019-03-03T05:47:56.449Z,40.80
2019-03-03T05:50:26.349Z,38.97
2019-03-03T05:52:56.265Z,34.90
2019-03-03T05:55:26.486Z,17.30
2019-03-03T05:57:56.694Z,17.33
2019-03-03T06:00:26.812Z,21.70
2019-03-03T06:02:56.819Z,21.20
2019-03-03T06:05:27.010Z,23.53
2019-03-03T06:07:57.221Z,10.83
2019-03-03T06:10:27.120Z,6.87
2019-03-03T06:12:57.228Z,9.70
2019-03-03T06:15:27.543Z,10.50
2019-03-03T06:17:57.521Z,11.50
2019-03-03T06:20:27.927Z,8.10
2019-03-03T06:22:58.147Z,8.37
2019-03-03T06:25:28.268Z,9.27
2019-03-03T06:27:58.386Z,17.97
2019-03-03T06:30:28.599Z,11.47
2019-03-03T06:32:58.834Z,14.33
2019-03-03T06:35:28.844Z,9.70
2019-03-03T06:37:58.852Z,10.10
2019-03-03T06:40:29.073Z,25.07
2019-03-03T06:42:59.329Z,19.57
2019-03-03T06:45:29.485Z,13.80
2019-03-03T06:47:59.415Z,16.17
2019-03-03T06:50:29.673Z,18.87
2019-03-03T06:52:59.959Z,18.10
2019-03-03T06:55:29.917Z,14.00
2019-03-03T06:58:00.114Z,14.43
2019-03-03T07:00:30.150Z,13.40
2019-03-03T07:03:00.343Z,13.23
2019-03-03T07:05:30.593Z,13.47
2019-03-03T07:08:00.886Z,14.33
2019-03-03T07:10:31.063Z,13.57
2019-03-03T07:13:01.125Z,14.30
2019-03-03T07:15:37.401Z,14.20
2019-03-03T07:18:17.643Z,15.80
2019-03-03T07:21:09.773Z,12.37
2019-03-03T07:23:39.857Z,12.83
2019-03-03T07:26:10.119Z,12.07
2019-03-03T07:28:40.359Z,11.47
2019-03-03T07:31:10.510Z,13.20
2019-03-03T07:33:43.898Z,13.60
2019-03-03T07:36:14.325Z,10.57
2019-03-03T07:38:44.474Z,12.57
2019-03-03T07:41:15.015Z,17.00
2019-03-03T07:43:45.256Z,13.40
2019-03-03T07:46:15.485Z,12.67
2019-03-03T07:48:45.618Z,13.30
2019-03-03T07:51:15.834Z,14.63
2019-03-03T07:53:46.049Z,11.90
2019-03-03T07:56:15.950Z,9.57
2019-03-03T07:58:47.864Z,12.03
2019-03-03T08:01:18.054Z,13.20
2019-03-03T08:03:48.269Z,11.17
2019-03-03T08:06:18.287Z,9.33
2019-03-03T08:08:48.268Z,11.00
2019-03-03T08:11:18.473Z,9.53
2019-03-03T08:13:48.656Z,10.20
2019-03-03T08:16:18.652Z,12.70
2019-03-03T08:18:48.972Z,10.57
2019-03-03T08:21:18.890Z,9.80
2019-03-03T08:23:48.801Z,9.33
2019-03-03T08:26:19.037Z,9.67
2019-03-03T08:28:49.303Z,9.23
2019-03-03T08:31:19.345Z,10.57
2019-03-03T08:33:49.261Z,11.97
2019-03-03T08:36:19.478Z,10.87
2019-03-03T08:38:50.177Z,11.33
2019-03-03T08:41:20.188Z,15.50
2019-03-03T08:44:06.997Z,13.83
2019-03-03T08:47:14.573Z,10.27
2019-03-03T08:50:03.617Z,9.53
2019-03-03T08:52:42.758Z,10.73
2019-03-03T08:55:30.999Z,10.60
2019-03-03T08:58:21.240Z,10.70
2019-03-03T09:00:56.131Z,12.53
2019-03-03T09:03:47.970Z,19.80
2019-03-03T09:06:40.121Z,11.80
2019-03-03T09:09:35.422Z,11.13
2019-03-03T09:12:10.165Z,15.80
2019-03-03T09:15:01.143Z,12.30
2019-03-03T09:17:49.807Z,11.37
2019-03-03T09:20:44.890Z,12.07
2019-03-03T09:23:25.871Z,9.97
2019-03-03T09:26:24.263Z,10.70
2019-03-03T09:29:04.514Z,10.50
2019-03-03T09:31:52.356Z,11.83
2019-03-03T09:34:59.353Z,8.40
2019-03-03T09:37:49.157Z,9.47
2019-03-03T09:40:37.002Z,12.40
2019-03-03T09:43:16.055Z,13.17
2019-03-03T09:46:03.705Z,12.03
2019-03-03T09:48:51.450Z,9.83
2019-03-03T09:51:46.556Z,8.00
2019-03-03T09:54:31.256Z,14.50
2019-03-03T09:57:11.446Z,24.47
2019-03-03T09:59:55.046Z,10.00
2019-03-03T10:02:49.686Z,10.53
2019-03-03T10:05:28.619Z,9.13
2019-03-03T10:08:17.854Z,9.67
2019-03-03T10:11:09.865Z,7.10
2019-03-03T10:14:03.990Z,7.33
2019-03-03T10:16:40.453Z,7.33
2019-03-03T10:19:25.719Z,7.57
2019-03-03T10:22:14.705Z,11.20
2019-03-03T10:24:57.768Z,10.80
2019-03-03T10:27:45.775Z,12.60
2019-03-03T10:30:46.913Z,9.00
2019-03-03T10:33:48.147Z,12.93
2019-03-03T10:36:42.968Z,8.73
2019-03-03T10:39:31.297Z,10.00
2019-03-03T10:42:27.957Z,14.10
2019-03-03T10:45:29.232Z,10.60
2019-03-03T10:48:07.499Z,8.33
2019-03-03T10:50:55.119Z,9.40
2019-03-03T10:53:52.996Z,9.93
2019-03-03T10:56:34.378Z,18.57
2019-03-03T10:59:13.519Z,27.90
2019-03-03T11:01:56.458Z,19.07
2019-03-03T11:04:44.156Z,16.20
2019-03-03T11:07:39.102Z,13.63
2019-03-03T11:10:28.909Z,15.90
2019-03-03T11:13:17.993Z,16.20
2019-03-03T11:16:09.800Z,8.40
2019-03-03T11:18:57.937Z,8.43
2019-03-03T11:21:50.073Z,10.00
2019-03-03T11:24:37.460Z,10.40
2019-03-03T11:27:20.358Z,17.47
2019-03-03T11:30:04.791Z,15.53
2019-03-03T11:32:54.900Z,31.80
2019-03-03T11:35:46.811Z,10.70
2019-03-03T11:38:35.748Z,9.93
2019-03-03T11:41:32.251Z,8.23
2019-03-03T11:44:27.713Z,8.63
2019-03-03T11:47:08.073Z,7.70
2019-03-03T11:49:53.453Z,9.27
2019-03-03T11:52:31.573Z,10.47
2019-03-03T11:55:13.135Z,8.67
2019-03-03T11:57:52.957Z,6.53
2019-03-03T12:00:36.837Z,6.70
2019-03-03T12:03:34.804Z,8.03
2019-03-03T12:06:29.774Z,9.80
2019-03-03T12:09:21.591Z,8.47
2019-03-03T12:12:10.609Z,6.73
2019-03-03T12:15:14.558Z,7.03
2019-03-03T12:17:55.887Z,8.20
2019-03-03T12:20:33.891Z,6.67
2019-03-03T12:23:25.400Z,7.50
2019-03-03T12:26:20.157Z,8.10
2019-03-03T12:29:14.292Z,7.57
2019-03-03T12:32:15.713Z,6.70
2019-03-03T12:34:52.315Z,7.93
2019-03-03T12:37:36.966Z,6.60
2019-03-03T12:40:37.360Z,6.50
2019-03-03T12:43:16.939Z,8.77
2019-03-03T12:46:05.875Z,8.60
2019-03-03T12:48:54.840Z,6.30
2019-03-03T12:51:56.021Z,7.57
2019-03-03T12:54:39.948Z,7.87
2019-03-03T12:57:27.410Z,7.70
2019-03-03T13:00:22.449Z,7.67
2019-03-03T13:03:14.326Z,6.00
2019-03-03T13:06:09.284Z,9.00
2019-03-03T13:09:13.212Z,6.27
2019-03-03T13:11:51.431Z,6.93
2019-03-03T13:14:32.310Z,8.07
2019-03-03T13:17:27.822Z,5.87
2019-03-03T13:20:12.573Z,5.83
2019-03-03T13:22:54.168Z,6.50
2019-03-03T13:25:36.469Z,6.13
2019-03-03T13:28:21.607Z,5.87
2019-03-03T13:31:10.617Z,5.33
2019-03-03T13:33:58.386Z,7.20
2019-03-03T13:36:50.123Z,6.20
2019-03-03T13:39:57.642Z,4.40
2019-03-03T13:42:43.709Z,6.77
2019-03-03T13:45:15.234Z,5.83
2019-03-03T13:47:45.249Z,6.93
2019-03-03T13:50:17.161Z,5.90
2019-03-03T13:52:47.347Z,9.90
2019-03-03T13:55:17.587Z,5.77
2019-03-03T13:57:47.692Z,5.87
2019-03-03T14:00:21.182Z,7.87
2019-03-03T14:02:51.955Z,7.43
2019-03-03T14:05:23.829Z,7.70
2019-03-03T14:07:53.948Z,7.83
2019-03-03T14:10:24.160Z,9.13
2019-03-03T14:12:54.175Z,8.30
2019-03-03T14:15:24.380Z,8.33
2019-03-03T14:17:54.576Z,8.23
2019-03-03T14:20:25.235Z,6.30
2019-03-03T14:22:55.887Z,6.50
2019-03-03T14:25:26.194Z,9.20
2019-03-03T14:27:56.545Z,21.93
2019-03-03T14:30:27.326Z,12.97
2019-03-03T14:32:57.484Z,11.60
2019-03-03T14:35:28.879Z,9.67
2019-03-03T14:37:59.150Z,9.17
2019-03-03T14:40:29.529Z,28.27
2019-03-03T14:42:59.803Z,12.90
2019-03-03T14:45:30.415Z,17.93
2019-03-03T14:48:00.631Z,15.27
2019-03-03T14:50:30.766Z,5.90
2019-03-03T14:53:00.980Z,5.00
2019-03-03T14:55:31.185Z,5.03
2019-03-03T14:58:01.325Z,2.77
2019-03-03T15:00:34.201Z,1.87
2019-03-03T15:03:06.403Z,3.20
2019-03-03T15:05:36.833Z,4.20
2019-03-03T15:08:06.967Z,6.00
2019-03-03T15:10:37.205Z,5.77
2019-03-03T15:13:07.415Z,4.20
2019-03-03T15:15:37.652Z,4.03
2019-03-03T15:18:07.778Z,8.23
2019-03-03T15:20:37.998Z,9.70
2019-03-03T15:23:08.303Z,6.50
2019-03-03T15:25:38.428Z,6.37
2019-03-03T15:28:08.571Z,5.57
2019-03-03T15:30:38.779Z,6.30
2019-03-03T15:33:09.139Z,20.63
2019-03-03T15:35:39.397Z,18.93
2019-03-03T15:38:09.620Z,10.53
2019-03-03T15:40:39.746Z,10.37
2019-03-03T15:43:10.088Z,10.10
2019-03-03T15:45:40.442Z,7.80
2019-03-03T15:48:10.869Z,8.90
2019-03-03T15:50:41.239Z,6.50
2019-03-03T15:53:11.258Z,7.27
2019-03-03T15:55:41.480Z,6.87
2019-03-03T15:58:11.698Z,6.57
2019-03-03T16:00:41.997Z,6.90
2019-03-03T16:03:12.220Z,19.43
2019-03-03T16:05:42.472Z,12.80
2019-03-03T16:08:12.700Z,18.17
2019-03-03T16:10:42.727Z,13.20
2019-03-03T16:13:12.903Z,11.83
2019-03-03T16:15:43.165Z,11.17
2019-03-03T16:18:13.379Z,8.83
2019-03-03T16:20:43.808Z,7.90
2019-03-03T16:23:14.092Z,7.83
2019-03-03T16:25:44.384Z,5.43
2019-03-03T16:28:14.614Z,9.70
2019-03-03T16:30:47.832Z,7.70
2019-03-03T16:33:20.869Z,6.37
2019-03-03T16:35:49.868Z,7.80
2019-03-03T16:38:25.643Z,11.03
2019-03-03T16:40:55.823Z,6.60
2019-03-03T16:43:26.020Z,8.23
2019-03-03T16:45:56.291Z,16.17
2019-03-03T16:48:27.196Z,25.20
2019-03-03T16:50:57.267Z,22.67
2019-03-03T16:53:27.514Z,23.93
2019-03-03T16:55:57.672Z,22.40
2019-03-03T16:58:27.743Z,11.63
2019-03-03T17:00:58.000Z,4.83
2019-03-03T17:03:28.234Z,5.40
2019-03-03T17:05:58.418Z,5.67
2019-03-03T17:08:28.646Z,6.40
2019-03-03T17:10:58.943Z,10.33
2019-03-03T17:13:29.163Z,23.03
2019-03-03T17:15:59.216Z,21.13
2019-03-03T17:18:30.605Z,14.40
2019-03-03T17:21:03.869Z,13.30
2019-03-03T17:23:34.176Z,8.77
2019-03-03T17:26:04.371Z,7.90
2019-03-03T17:28:34.504Z,7.27
2019-03-03T17:31:04.699Z,18.50
2019-03-03T17:33:34.907Z,8.47
2019-03-03T17:36:05.182Z,11.07
2019-03-03T17:38:35.384Z,10.73
2019-03-03T17:41:05.540Z,12.63
2019-03-03T17:43:38.771Z,13.80
2019-03-03T17:46:09.183Z,14.83
2019-03-03T17:48:39.407Z,16.47
2019-03-03T17:51:09.675Z,18.17
2019-03-03T17:53:39.825Z,13.27
2019-03-03T17:56:10.177Z,11.40
2019-03-03T17:58:40.374Z,11.53
2019-03-03T18:01:10.465Z,11.40
2019-03-03T18:03:40.686Z,12.60
2019-03-03T18:06:10.914Z,13.67
2019-03-03T18:08:41.142Z,13.57
2019-03-03T18:11:11.286Z,12.63
2019-03-03T18:13:41.471Z,13.63
2019-03-03T18:16:11.593Z,41.60
2019-03-03T18:18:41.729Z,38.30
2019-03-03T18:21:11.956Z,44.63
2019-03-03T18:23:42.183Z,40.03
2019-03-03T18:26:12.290Z,43.67
2019-03-03T18:28:42.331Z,45.13
2019-03-03T18:31:12.539Z,34.17
2019-03-03T18:33:42.828Z,25.10
2019-03-03T18:36:14.550Z,22.03
2019-03-03T18:38:44.517Z,22.40
2019-03-03T18:41:14.719Z,26.00
2019-03-03T18:43:45.170Z,28.50
2019-03-03T18:46:15.407Z,19.80
2019-03-03T18:48:45.546Z,17.37
2019-03-03T18:51:15.952Z,17.83
2019-03-03T18:53:46.000Z,24.37
2019-03-03T18:56:16.218Z,21.27
2019-03-03T18:58:46.498Z,20.07
2019-03-03T19:01:16.665Z,16.60
2019-03-03T19:03:46.784Z,17.27
2019-03-03T19:06:17.007Z,14.83
2019-03-03T19:08:47.261Z,17.27
2019-03-03T19:11:17.275Z,19.20
2019-03-03T19:13:47.300Z,17.30
2019-03-03T19:16:17.510Z,18.73
2019-03-03T19:18:47.726Z,16.77
2019-03-03T19:21:17.847Z,16.57
2019-03-03T19:23:47.965Z,16.50
2019-03-03T19:26:19.030Z,19.00
2019-03-03T19:28:49.474Z,18.10
2019-03-03T19:31:20.975Z,20.40
2019-03-03T19:33:53.953Z,17.90
2019-03-03T19:36:24.088Z,17.37
2019-03-03T19:38:54.105Z,20.30
2019-03-03T19:41:46.353Z,29.77
2019-03-03T19:44:16.848Z,30.77
2019-03-03T19:46:47.222Z,28.77
2019-03-03T19:49:17.357Z,19.70
2019-03-03T19:51:47.586Z,28.60
2019-03-03T19:54:17.825Z,18.10
2019-03-03T19:56:47.829Z,12.57
2019-03-03T19:59:17.961Z,15.67
2019-03-03T20:01:48.166Z,12.47
2019-03-03T20:04:18.377Z,10.77
2019-03-03T20:06:48.416Z,8.40
2019-03-03T20:09:19.724Z,9.33
2019-03-03T20:11:49.946Z,12.80
2019-03-03T20:14:20.173Z,10.50
2019-03-03T20:16:50.477Z,6.53
2019-03-03T20:19:20.715Z,5.77
2019-03-03T20:21:50.809Z,6.97
2019-03-03T20:24:21.106Z,6.40
2019-03-03T20:26:51.326Z,8.47
2019-03-03T20:29:21.548Z,10.60
2019-03-03T20:31:52.111Z,10.47
2019-03-03T20:34:22.249Z,9.20
2019-03-03T20:36:52.475Z,12.40
2019-03-03T20:39:22.761Z,11.30
2019-03-03T20:41:52.838Z,11.03
2019-03-03T20:44:22.924Z,10.70
2019-03-03T20:46:53.414Z,11.87
2019-03-03T20:49:23.676Z,12.47
2019-03-03T20:51:53.593Z,19.37
2019-03-03T20:54:23.830Z,17.23
2019-03-03T20:56:53.847Z,13.37
2019-03-03T20:59:24.409Z,13.13
2019-03-03T21:01:54.638Z,15.40
2019-03-03T21:04:24.901Z,12.20
2019-03-03T21:06:55.287Z,16.63
2019-03-03T21:09:26.168Z,16.07
2019-03-03T21:11:56.379Z,15.73
2019-03-03T21:14:26.652Z,15.87
2019-03-03T21:16:56.673Z,17.60
2019-03-03T21:19:26.732Z,15.17
2019-03-03T21:21:56.952Z,14.50
2019-03-03T21:24:27.241Z,13.83
2019-03-03T21:26:57.299Z,14.80
2019-03-03T21:29:27.316Z,12.37
2019-03-03T21:31:57.524Z,12.77
2019-03-03T21:34:27.721Z,12.90
2019-03-03T21:36:57.630Z,15.13
2019-03-03T21:39:27.666Z,15.67
2019-03-03T21:41:58.791Z,18.73
2019-03-03T21:44:29.366Z,17.10
2019-03-03T21:46:59.858Z,15.10
2019-03-03T21:49:30.253Z,16.07
2019-03-03T21:52:00.608Z,14.33
2019-03-03T21:54:30.887Z,13.73
2019-03-03T21:57:00.902Z,11.53
2019-03-03T21:59:31.542Z,11.47
2019-03-03T22:02:01.746Z,11.10
2019-03-03T22:04:31.955Z,13.60
2019-03-03T22:07:01.861Z,10.90
2019-03-03T22:09:31.785Z,11.20
2019-03-03T22:12:01.981Z,22.77
2019-03-03T22:14:32.025Z,12.97
2019-03-03T22:17:02.342Z,11.97
2019-03-03T22:19:32.542Z,10.30
2019-03-03T22:22:03.073Z,9.80
2019-03-03T22:24:33.302Z,9.80
2019-03-03T22:27:03.514Z,11.13
2019-03-03T22:29:33.704Z,13.50
2019-03-03T22:32:03.737Z,12.40
2019-03-03T22:34:33.689Z,9.63
2019-03-03T22:37:03.889Z,10.67
2019-03-03T22:39:34.073Z,9.57
2019-03-03T22:42:04.000Z,10.93
2019-03-03T22:44:33.906Z,12.27
2019-03-03T22:47:04.405Z,12.63
2019-03-03T22:49:34.748Z,10.60
2019-03-03T22:52:04.870Z,8.57
2019-03-03T22:54:35.181Z,8.53
2019-03-03T22:57:05.293Z,10.00
2019-03-03T22:59:35.208Z,7.70
2019-03-03T23:02:05.396Z,6.90
2019-03-03T23:05:15.997Z,6.70
2019-03-03T23:08:12.699Z,7.50
2019-03-03T23:11:01.897Z,6.73
2019-03-03T23:13:47.205Z,6.60
2019-03-03T23:16:50.313Z,9.17
2019-03-03T23:19:51.195Z,9.67
2019-03-03T23:22:58.941Z,10.07
2019-03-03T23:25:58.001Z,8.10
2019-03-03T23:28:28.246Z,7.80
2019-03-03T23:30:59.017Z,8.40
2019-03-03T23:33:29.138Z,6.77
2019-03-03T23:35:59.316Z,7.03
2019-03-03T23:38:29.322Z,6.23
2019-03-03T23:41:00.144Z,6.30
2019-03-03T23:43:30.327Z,7.07
2019-03-03T23:46:00.551Z,8.73
2019-03-03T23:48:30.562Z,5.87
2019-03-03T23:51:00.747Z,7.90
2019-03-03T23:53:30.994Z,7.00
2019-03-03T23:56:00.892Z,6.97
2019-03-03T23:58:30.902Z,7.60
